sensor_id;sensor_type;location;lat;lon;timestamp;temperature;humidity
7658;DHT22;8462;53.156;8.220;2023-08-07T00:01:43;17.50;99.90
7658;DHT22;8462;53.156;8.220;2023-08-07T00:04:10;17.50;99.90
7658;DHT22;8462;53.156;8.220;2023-08-07T00:06:37;17.40;99.90
7658;DHT22;8462;53.156;8.220;2023-08-07T00:09:04;17.40;99.90
7658;DHT22;8462;53.156;8.220;2023-08-07T00:11:31;17.40;99.90
7658;DHT22;8462;53.156;8.220;2023-08-07T00:13:58;17.30;99.90
7658;DHT22;8462;53.156;8.220;2023-08-07T00:16:26;17.30;99.90
7658;DHT22;8462;53.156;8.220;2023-08-07T00:18:54;17.20;99.90
7658;DHT22;8462;53.156;8.220;2023-08-07T00:21:24;17.10;99.90
7658;DHT22;8462;53.156;8.220;2023-08-07T00:23:50;17.10;99.90
7658;DHT22;8462;53.156;8.220;2023-08-07T00:26:17;17.10;99.90
7658;DHT22;8462;53.156;8.220;2023-08-07T00:28:45;17.10;99.90
7658;DHT22;8462;53.156;8.220;2023-08-07T00:31:12;17.10;99.90
7658;DHT22;8462;53.156;8.220;2023-08-07T00:33:39;17.00;99.90
7658;DHT22;8462;53.156;8.220;2023-08-07T00:36:09;17.10;99.90
7658;DHT22;8462;53.156;8.220;2023-08-07T00:38:35;17.00;99.90
7658;DHT22;8462;53.156;8.220;2023-08-07T00:41:02;17.00;99.90
7658;DHT22;8462;53.156;8.220;2023-08-07T00:43:30;17.00;99.90
7658;DHT22;8462;53.156;8.220;2023-08-07T00:45:57;17.00;99.90
7658;DHT22;8462;53.156;8.220;2023-08-07T00:48:24;17.00;99.90
7658;DHT22;8462;53.156;8.220;2023-08-07T00:50:51;17.00;99.90
7658;DHT22;8462;53.156;8.220;2023-08-07T00:53:21;17.00;99.90
7658;DHT22;8462;53.156;8.220;2023-08-07T00:55:49;17.00;99.90
7658;DHT22;8462;53.156;8.220;2023-08-07T00:58:15;17.00;99.90
7658;DHT22;8462;53.156;8.220;2023-08-07T01:00:43;17.00;99.90
7658;DHT22;8462;53.156;8.220;2023-08-07T01:03:12;17.00;99.90
7658;DHT22;8462;53.156;8.220;2023-08-07T01:05:40;17.00;99.90
7658;DHT22;8462;53.156;8.220;2023-08-07T01:08:07;17.00;99.90
7658;DHT22;8462;53.156;8.220;2023-08-07T01:10:43;17.00;99.90
7658;DHT22;8462;53.156;8.220;2023-08-07T01:13:16;17.00;99.90
7658;DHT22;8462;53.156;8.220;2023-08-07T01:15:47;16.90;99.90
7658;DHT22;8462;53.156;8.220;2023-08-07T01:18:15;16.90;99.90
7658;DHT22;8462;53.156;8.220;2023-08-07T01:20:43;17.00;99.90
7658;DHT22;8462;53.156;8.220;2023-08-07T01:23:11;17.00;99.90
7658;DHT22;8462;53.156;8.220;2023-08-07T01:25:38;17.00;99.90
7658;DHT22;8462;53.156;8.220;2023-08-07T01:28:11;17.00;99.90
7658;DHT22;8462;53.156;8.220;2023-08-07T01:30:44;17.00;99.90
7658;DHT22;8462;53.156;8.220;2023-08-07T01:33:27;17.00;99.90
7658;DHT22;8462;53.156;8.220;2023-08-07T01:36:01;16.90;99.90
7658;DHT22;8462;53.156;8.220;2023-08-07T01:38:30;16.90;99.90
7658;DHT22;8462;53.156;8.220;2023-08-07T01:40:58;17.00;99.90
7658;DHT22;8462;53.156;8.220;2023-08-07T01:43:27;16.90;99.90
7658;DHT22;8462;53.156;8.220;2023-08-07T01:45:53;17.00;99.90
7658;DHT22;8462;53.156;8.220;2023-08-07T01:48:20;16.90;99.90
7658;DHT22;8462;53.156;8.220;2023-08-07T01:50:47;16.90;99.90
7658;DHT22;8462;53.156;8.220;2023-08-07T01:53:14;16.90;99.90
7658;DHT22;8462;53.156;8.220;2023-08-07T01:55:42;16.90;99.90
7658;DHT22;8462;53.156;8.220;2023-08-07T01:58:09;16.90;99.90
7658;DHT22;8462;53.156;8.220;2023-08-07T02:00:36;16.90;99.90
7658;DHT22;8462;53.156;8.220;2023-08-07T02:03:03;16.90;99.90
7658;DHT22;8462;53.156;8.220;2023-08-07T02:05:30;16.90;99.90
7658;DHT22;8462;53.156;8.220;2023-08-07T02:07:57;16.90;99.90
7658;DHT22;8462;53.156;8.220;2023-08-07T02:10:24;16.90;99.90
7658;DHT22;8462;53.156;8.220;2023-08-07T02:12:52;16.90;99.90
7658;DHT22;8462;53.156;8.220;2023-08-07T02:15:19;17.00;99.90
7658;DHT22;8462;53.156;8.220;2023-08-07T02:17:50;17.10;99.90
7658;DHT22;8462;53.156;8.220;2023-08-07T02:20:17;17.00;99.90
7658;DHT22;8462;53.156;8.220;2023-08-07T02:22:44;17.10;99.90
7658;DHT22;8462;53.156;8.220;2023-08-07T02:25:11;17.00;99.90
7658;DHT22;8462;53.156;8.220;2023-08-07T02:27:38;17.00;99.90
7658;DHT22;8462;53.156;8.220;2023-08-07T02:30:07;17.10;99.90
7658;DHT22;8462;53.156;8.220;2023-08-07T02:32:34;17.10;99.90
7658;DHT22;8462;53.156;8.220;2023-08-07T02:35:01;17.00;99.90
7658;DHT22;8462;53.156;8.220;2023-08-07T02:37:28;17.00;99.90
7658;DHT22;8462;53.156;8.220;2023-08-07T02:39:55;17.00;99.90
7658;DHT22;8462;53.156;8.220;2023-08-07T02:42:21;17.00;99.90
7658;DHT22;8462;53.156;8.220;2023-08-07T02:44:49;17.00;99.90
7658;DHT22;8462;53.156;8.220;2023-08-07T02:47:17;17.10;99.90
7658;DHT22;8462;53.156;8.220;2023-08-07T02:49:44;17.10;99.90
7658;DHT22;8462;53.156;8.220;2023-08-07T02:52:11;17.20;99.90
7658;DHT22;8462;53.156;8.220;2023-08-07T02:54:38;17.20;99.90
7658;DHT22;8462;53.156;8.220;2023-08-07T02:57:05;17.20;99.90
7658;DHT22;8462;53.156;8.220;2023-08-07T02:59:32;17.20;99.90
7658;DHT22;8462;53.156;8.220;2023-08-07T03:01:59;17.20;99.90
7658;DHT22;8462;53.156;8.220;2023-08-07T03:04:28;17.20;99.90
7658;DHT22;8462;53.156;8.220;2023-08-07T03:06:55;17.20;99.90
7658;DHT22;8462;53.156;8.220;2023-08-07T03:09:22;17.20;99.90
7658;DHT22;8462;53.156;8.220;2023-08-07T03:11:49;17.20;99.90
7658;DHT22;8462;53.156;8.220;2023-08-07T03:14:16;17.20;99.90
7658;DHT22;8462;53.156;8.220;2023-08-07T03:16:44;17.20;99.90
7658;DHT22;8462;53.156;8.220;2023-08-07T03:19:12;17.30;99.90
7658;DHT22;8462;53.156;8.220;2023-08-07T03:21:40;17.30;99.90
7658;DHT22;8462;53.156;8.220;2023-08-07T03:24:07;17.30;99.90
7658;DHT22;8462;53.156;8.220;2023-08-07T03:26:34;17.30;99.90
7658;DHT22;8462;53.156;8.220;2023-08-07T03:29:01;17.30;99.90
7658;DHT22;8462;53.156;8.220;2023-08-07T03:31:28;17.30;99.90
7658;DHT22;8462;53.156;8.220;2023-08-07T03:33:55;17.30;99.90
7658;DHT22;8462;53.156;8.220;2023-08-07T03:36:24;17.30;99.90
7658;DHT22;8462;53.156;8.220;2023-08-07T03:38:52;17.30;99.90
7658;DHT22;8462;53.156;8.220;2023-08-07T03:41:19;17.30;99.90
7658;DHT22;8462;53.156;8.220;2023-08-07T03:43:47;17.30;99.90
7658;DHT22;8462;53.156;8.220;2023-08-07T03:46:14;17.30;99.90
7658;DHT22;8462;53.156;8.220;2023-08-07T03:48:41;17.30;99.90
7658;DHT22;8462;53.156;8.220;2023-08-07T03:51:09;17.30;99.90
7658;DHT22;8462;53.156;8.220;2023-08-07T03:53:43;17.40;99.90
7658;DHT22;8462;53.156;8.220;2023-08-07T03:56:11;17.40;99.90
7658;DHT22;8462;53.156;8.220;2023-08-07T03:58:38;17.40;99.90
7658;DHT22;8462;53.156;8.220;2023-08-07T04:01:06;17.30;99.90
7658;DHT22;8462;53.156;8.220;2023-08-07T04:03:33;17.30;99.90
7658;DHT22;8462;53.156;8.220;2023-08-07T04:06:00;17.30;99.90
7658;DHT22;8462;53.156;8.220;2023-08-07T04:08:27;17.30;99.90
7658;DHT22;8462;53.156;8.220;2023-08-07T04:10:58;17.30;99.90
7658;DHT22;8462;53.156;8.220;2023-08-07T04:13:28;17.20;99.90
7658;DHT22;8462;53.156;8.220;2023-08-07T04:15:55;17.20;99.90
7658;DHT22;8462;53.156;8.220;2023-08-07T04:18:22;17.20;99.90
7658;DHT22;8462;53.156;8.220;2023-08-07T04:20:49;17.20;99.90
7658;DHT22;8462;53.156;8.220;2023-08-07T04:23:21;17.20;99.90
7658;DHT22;8462;53.156;8.220;2023-08-07T04:25:49;17.20;99.90
7658;DHT22;8462;53.156;8.220;2023-08-07T04:28:16;17.20;99.90
7658;DHT22;8462;53.156;8.220;2023-08-07T04:30:45;17.20;99.90
7658;DHT22;8462;53.156;8.220;2023-08-07T04:33:15;17.20;99.90
7658;DHT22;8462;53.156;8.220;2023-08-07T04:35:42;17.20;99.90
7658;DHT22;8462;53.156;8.220;2023-08-07T04:38:09;17.20;99.90
7658;DHT22;8462;53.156;8.220;2023-08-07T04:40:36;17.20;99.90
7658;DHT22;8462;53.156;8.220;2023-08-07T04:43:04;17.30;99.90
7658;DHT22;8462;53.156;8.220;2023-08-07T04:45:32;17.30;99.90
7658;DHT22;8462;53.156;8.220;2023-08-07T04:48:00;17.40;99.90
7658;DHT22;8462;53.156;8.220;2023-08-07T04:50:27;17.40;99.90
7658;DHT22;8462;53.156;8.220;2023-08-07T04:52:54;17.50;99.90
7658;DHT22;8462;53.156;8.220;2023-08-07T04:55:21;17.50;99.90
7658;DHT22;8462;53.156;8.220;2023-08-07T04:57:48;17.50;99.90
7658;DHT22;8462;53.156;8.220;2023-08-07T05:00:16;17.50;99.90
7658;DHT22;8462;53.156;8.220;2023-08-07T05:02:43;17.60;99.90
7658;DHT22;8462;53.156;8.220;2023-08-07T05:05:13;17.60;99.90
7658;DHT22;8462;53.156;8.220;2023-08-07T05:07:40;17.70;99.90
7658;DHT22;8462;53.156;8.220;2023-08-07T05:10:09;17.70;99.90
7658;DHT22;8462;53.156;8.220;2023-08-07T05:12:36;17.70;99.90
7658;DHT22;8462;53.156;8.220;2023-08-07T05:15:04;17.70;99.90
7658;DHT22;8462;53.156;8.220;2023-08-07T05:17:31;17.80;99.90
7658;DHT22;8462;53.156;8.220;2023-08-07T05:19:58;17.80;99.90
7658;DHT22;8462;53.156;8.220;2023-08-07T05:22:33;17.80;99.90
7658;DHT22;8462;53.156;8.220;2023-08-07T05:24:59;17.90;99.90
7658;DHT22;8462;53.156;8.220;2023-08-07T05:27:27;17.90;99.90
7658;DHT22;8462;53.156;8.220;2023-08-07T05:29:55;17.90;99.90
7658;DHT22;8462;53.156;8.220;2023-08-07T05:32:23;18.00;99.90
7658;DHT22;8462;53.156;8.220;2023-08-07T05:34:49;18.10;99.90
7658;DHT22;8462;53.156;8.220;2023-08-07T05:37:17;18.10;99.90
7658;DHT22;8462;53.156;8.220;2023-08-07T05:39:45;18.10;99.90
7658;DHT22;8462;53.156;8.220;2023-08-07T05:42:12;18.10;99.90
7658;DHT22;8462;53.156;8.220;2023-08-07T05:44:41;18.20;99.90
7658;DHT22;8462;53.156;8.220;2023-08-07T05:47:09;18.30;99.90
7658;DHT22;8462;53.156;8.220;2023-08-07T05:49:36;18.40;99.90
7658;DHT22;8462;53.156;8.220;2023-08-07T05:52:03;18.50;99.90
7658;DHT22;8462;53.156;8.220;2023-08-07T05:54:31;18.70;99.90
7658;DHT22;8462;53.156;8.220;2023-08-07T05:57:00;18.80;99.90
7658;DHT22;8462;53.156;8.220;2023-08-07T05:59:27;18.80;99.90
7658;DHT22;8462;53.156;8.220;2023-08-07T06:01:54;18.90;99.90
7658;DHT22;8462;53.156;8.220;2023-08-07T06:04:21;18.80;99.90
7658;DHT22;8462;53.156;8.220;2023-08-07T06:06:48;18.90;99.90
7658;DHT22;8462;53.156;8.220;2023-08-07T06:09:15;19.10;99.90
7658;DHT22;8462;53.156;8.220;2023-08-07T06:11:42;19.20;99.90
7658;DHT22;8462;53.156;8.220;2023-08-07T06:14:10;19.50;99.90
7658;DHT22;8462;53.156;8.220;2023-08-07T06:16:37;20.10;99.90
7658;DHT22;8462;53.156;8.220;2023-08-07T06:19:04;20.40;99.90
7658;DHT22;8462;53.156;8.220;2023-08-07T06:21:34;20.20;99.90
7658;DHT22;8462;53.156;8.220;2023-08-07T06:24:01;20.00;99.90
7658;DHT22;8462;53.156;8.220;2023-08-07T06:26:28;19.50;99.90
7658;DHT22;8462;53.156;8.220;2023-08-07T06:28:55;19.10;99.90
7658;DHT22;8462;53.156;8.220;2023-08-07T06:31:24;18.80;99.90
7658;DHT22;8462;53.156;8.220;2023-08-07T06:33:51;18.50;99.90
7658;DHT22;8462;53.156;8.220;2023-08-07T06:36:18;18.40;99.90
7658;DHT22;8462;53.156;8.220;2023-08-07T06:38:45;18.30;99.90
7658;DHT22;8462;53.156;8.220;2023-08-07T06:41:13;18.20;99.90
7658;DHT22;8462;53.156;8.220;2023-08-07T06:43:40;18.30;99.90
7658;DHT22;8462;53.156;8.220;2023-08-07T06:46:07;18.40;99.90
7658;DHT22;8462;53.156;8.220;2023-08-07T06:48:35;18.60;99.90
7658;DHT22;8462;53.156;8.220;2023-08-07T06:51:02;18.70;99.90
7658;DHT22;8462;53.156;8.220;2023-08-07T06:53:29;18.80;99.90
7658;DHT22;8462;53.156;8.220;2023-08-07T06:55:56;18.90;99.90
7658;DHT22;8462;53.156;8.220;2023-08-07T06:58:23;19.00;99.90
7658;DHT22;8462;53.156;8.220;2023-08-07T07:00:50;19.10;99.90
7658;DHT22;8462;53.156;8.220;2023-08-07T07:03:17;19.30;99.90
7658;DHT22;8462;53.156;8.220;2023-08-07T07:05:46;19.40;99.90
7658;DHT22;8462;53.156;8.220;2023-08-07T07:08:13;19.50;99.90
7658;DHT22;8462;53.156;8.220;2023-08-07T07:10:40;19.60;99.90
7658;DHT22;8462;53.156;8.220;2023-08-07T07:13:07;19.90;99.90
7658;DHT22;8462;53.156;8.220;2023-08-07T07:15:37;20.70;99.90
7658;DHT22;8462;53.156;8.220;2023-08-07T07:18:04;21.70;98.20
7658;DHT22;8462;53.156;8.220;2023-08-07T07:20:31;22.70;97.60
7658;DHT22;8462;53.156;8.220;2023-08-07T07:22:59;23.60;95.40
7658;DHT22;8462;53.156;8.220;2023-08-07T07:25:26;24.20;93.20
7658;DHT22;8462;53.156;8.220;2023-08-07T07:27:53;24.80;92.90
7658;DHT22;8462;53.156;8.220;2023-08-07T07:30:23;25.10;90.00
7658;DHT22;8462;53.156;8.220;2023-08-07T07:32:50;25.20;89.00
7658;DHT22;8462;53.156;8.220;2023-08-07T07:35:17;25.20;89.20
7658;DHT22;8462;53.156;8.220;2023-08-07T07:37:44;25.10;87.40
7658;DHT22;8462;53.156;8.220;2023-08-07T07:40:13;24.90;89.40
7658;DHT22;8462;53.156;8.220;2023-08-07T07:42:40;24.70;89.10
7658;DHT22;8462;53.156;8.220;2023-08-07T07:45:08;24.30;88.20
7658;DHT22;8462;53.156;8.220;2023-08-07T07:47:35;24.10;90.00
7658;DHT22;8462;53.156;8.220;2023-08-07T07:50:08;23.70;89.90
7658;DHT22;8462;53.156;8.220;2023-08-07T07:52:36;23.40;90.30
7658;DHT22;8462;53.156;8.220;2023-08-07T07:55:05;23.10;90.90
7658;DHT22;8462;53.156;8.220;2023-08-07T07:57:36;22.80;91.50
7658;DHT22;8462;53.156;8.220;2023-08-07T08:00:04;22.60;91.70
7658;DHT22;8462;53.156;8.220;2023-08-07T08:02:37;22.50;92.30
7658;DHT22;8462;53.156;8.220;2023-08-07T08:05:04;22.40;92.10
7658;DHT22;8462;53.156;8.220;2023-08-07T08:07:32;22.30;90.70
7658;DHT22;8462;53.156;8.220;2023-08-07T08:10:01;22.10;90.50
7658;DHT22;8462;53.156;8.220;2023-08-07T08:12:30;22.00;90.50
7658;DHT22;8462;53.156;8.220;2023-08-07T08:14:58;22.00;91.00
7658;DHT22;8462;53.156;8.220;2023-08-07T08:17:26;21.80;90.70
7658;DHT22;8462;53.156;8.220;2023-08-07T08:19:52;21.60;90.70
7658;DHT22;8462;53.156;8.220;2023-08-07T08:22:19;21.30;91.40
7658;DHT22;8462;53.156;8.220;2023-08-07T08:24:46;21.10;91.90
7658;DHT22;8462;53.156;8.220;2023-08-07T08:27:14;20.90;92.10
7658;DHT22;8462;53.156;8.220;2023-08-07T08:29:42;20.80;91.50
7658;DHT22;8462;53.156;8.220;2023-08-07T08:32:12;20.70;91.40
7658;DHT22;8462;53.156;8.220;2023-08-07T08:34:39;20.70;91.40
7658;DHT22;8462;53.156;8.220;2023-08-07T08:37:09;20.80;91.50
7658;DHT22;8462;53.156;8.220;2023-08-07T08:39:37;20.90;90.40
7658;DHT22;8462;53.156;8.220;2023-08-07T08:42:04;21.00;90.60
7658;DHT22;8462;53.156;8.220;2023-08-07T08:44:35;21.40;90.80
7658;DHT22;8462;53.156;8.220;2023-08-07T08:47:03;21.70;89.20
7658;DHT22;8462;53.156;8.220;2023-08-07T08:49:37;21.70;89.50
7658;DHT22;8462;53.156;8.220;2023-08-07T08:52:08;21.50;90.30
7658;DHT22;8462;53.156;8.220;2023-08-07T08:54:36;21.00;91.40
7658;DHT22;8462;53.156;8.220;2023-08-07T08:57:04;20.50;92.30
7658;DHT22;8462;53.156;8.220;2023-08-07T08:59:33;20.20;93.60
7658;DHT22;8462;53.156;8.220;2023-08-07T09:02:00;20.30;94.20
7658;DHT22;8462;53.156;8.220;2023-08-07T09:04:27;20.40;93.70
7658;DHT22;8462;53.156;8.220;2023-08-07T09:06:55;20.40;93.00
7658;DHT22;8462;53.156;8.220;2023-08-07T09:09:24;20.60;93.30
7658;DHT22;8462;53.156;8.220;2023-08-07T09:11:52;20.70;92.00
7658;DHT22;8462;53.156;8.220;2023-08-07T09:14:24;20.80;92.20
7658;DHT22;8462;53.156;8.220;2023-08-07T09:16:54;21.00;90.90
7658;DHT22;8462;53.156;8.220;2023-08-07T09:19:21;21.30;90.20
7658;DHT22;8462;53.156;8.220;2023-08-07T09:21:48;21.40;89.70
7658;DHT22;8462;53.156;8.220;2023-08-07T09:24:16;21.50;85.20
7658;DHT22;8462;53.156;8.220;2023-08-07T09:26:44;21.70;84.70
7658;DHT22;8462;53.156;8.220;2023-08-07T09:29:11;21.90;82.00
7658;DHT22;8462;53.156;8.220;2023-08-07T09:31:42;22.10;77.10
7658;DHT22;8462;53.156;8.220;2023-08-07T09:34:10;22.10;77.20
7658;DHT22;8462;53.156;8.220;2023-08-07T09:36:39;21.90;77.70
7658;DHT22;8462;53.156;8.220;2023-08-07T09:39:07;21.50;79.50
7658;DHT22;8462;53.156;8.220;2023-08-07T09:41:37;21.00;87.50
7658;DHT22;8462;53.156;8.220;2023-08-07T09:44:06;20.50;91.40
7658;DHT22;8462;53.156;8.220;2023-08-07T09:46:41;20.20;92.40
7658;DHT22;8462;53.156;8.220;2023-08-07T09:49:08;20.10;92.70
7658;DHT22;8462;53.156;8.220;2023-08-07T09:51:41;20.10;93.00
7658;DHT22;8462;53.156;8.220;2023-08-07T09:54:10;20.30;92.50
7658;DHT22;8462;53.156;8.220;2023-08-07T09:56:40;20.60;92.30
7658;DHT22;8462;53.156;8.220;2023-08-07T09:59:08;21.00;91.10
7658;DHT22;8462;53.156;8.220;2023-08-07T10:01:37;21.30;90.10
7658;DHT22;8462;53.156;8.220;2023-08-07T10:04:05;21.60;87.90
7658;DHT22;8462;53.156;8.220;2023-08-07T10:06:33;21.70;87.10
7658;DHT22;8462;53.156;8.220;2023-08-07T10:09:02;21.80;87.80
7658;DHT22;8462;53.156;8.220;2023-08-07T10:11:30;21.60;88.60
7658;DHT22;8462;53.156;8.220;2023-08-07T10:13:59;21.00;91.80
7658;DHT22;8462;53.156;8.220;2023-08-07T10:16:27;20.30;94.20
7658;DHT22;8462;53.156;8.220;2023-08-07T10:18:55;19.90;95.60
7658;DHT22;8462;53.156;8.220;2023-08-07T10:21:23;19.70;96.70
7658;DHT22;8462;53.156;8.220;2023-08-07T10:23:52;19.80;96.20
7658;DHT22;8462;53.156;8.220;2023-08-07T10:26:20;19.80;95.90
7658;DHT22;8462;53.156;8.220;2023-08-07T10:28:50;19.70;95.90
7658;DHT22;8462;53.156;8.220;2023-08-07T10:31:23;19.60;95.50
7658;DHT22;8462;53.156;8.220;2023-08-07T10:33:51;19.60;96.30
7658;DHT22;8462;53.156;8.220;2023-08-07T10:36:19;19.70;96.00
7658;DHT22;8462;53.156;8.220;2023-08-07T10:38:49;19.80;95.00
7658;DHT22;8462;53.156;8.220;2023-08-07T10:41:18;20.00;94.50
7658;DHT22;8462;53.156;8.220;2023-08-07T10:43:45;20.20;94.40
7658;DHT22;8462;53.156;8.220;2023-08-07T10:46:15;20.50;94.00
7658;DHT22;8462;53.156;8.220;2023-08-07T10:48:44;20.60;93.60
7658;DHT22;8462;53.156;8.220;2023-08-07T10:51:13;20.60;92.40
7658;DHT22;8462;53.156;8.220;2023-08-07T10:53:41;20.70;92.70
7658;DHT22;8462;53.156;8.220;2023-08-07T10:56:11;20.50;91.30
7658;DHT22;8462;53.156;8.220;2023-08-07T10:58:41;20.30;90.80
7658;DHT22;8462;53.156;8.220;2023-08-07T11:01:32;20.30;91.50
7658;DHT22;8462;53.156;8.220;2023-08-07T11:04:06;20.40;90.90
7658;DHT22;8462;53.156;8.220;2023-08-07T11:06:35;20.50;91.20
7658;DHT22;8462;53.156;8.220;2023-08-07T11:09:04;20.60;90.20
7658;DHT22;8462;53.156;8.220;2023-08-07T11:11:36;20.70;89.90
7658;DHT22;8462;53.156;8.220;2023-08-07T11:14:06;20.90;90.20
7658;DHT22;8462;53.156;8.220;2023-08-07T11:16:34;21.20;90.10
7658;DHT22;8462;53.156;8.220;2023-08-07T11:19:01;21.30;87.30
7658;DHT22;8462;53.156;8.220;2023-08-07T11:21:30;21.50;86.40
7658;DHT22;8462;53.156;8.220;2023-08-07T11:23:58;21.60;84.20
7658;DHT22;8462;53.156;8.220;2023-08-07T11:26:25;21.70;83.60
7658;DHT22;8462;53.156;8.220;2023-08-07T11:28:53;21.70;81.90
7658;DHT22;8462;53.156;8.220;2023-08-07T11:31:21;21.70;82.70
7658;DHT22;8462;53.156;8.220;2023-08-07T11:33:50;21.70;80.50
7658;DHT22;8462;53.156;8.220;2023-08-07T11:36:17;21.60;80.90
7658;DHT22;8462;53.156;8.220;2023-08-07T11:38:46;21.60;80.20
7658;DHT22;8462;53.156;8.220;2023-08-07T11:41:15;21.50;79.10
7658;DHT22;8462;53.156;8.220;2023-08-07T11:43:42;21.40;78.80
7658;DHT22;8462;53.156;8.220;2023-08-07T11:46:10;21.60;80.70
7658;DHT22;8462;53.156;8.220;2023-08-07T11:48:38;21.70;78.00
7658;DHT22;8462;53.156;8.220;2023-08-07T11:51:06;21.70;78.50
7658;DHT22;8462;53.156;8.220;2023-08-07T11:53:35;21.70;80.00
7658;DHT22;8462;53.156;8.220;2023-08-07T11:56:05;21.70;79.70
7658;DHT22;8462;53.156;8.220;2023-08-07T11:58:35;21.50;80.70
7658;DHT22;8462;53.156;8.220;2023-08-07T12:01:06;21.50;82.50
7658;DHT22;8462;53.156;8.220;2023-08-07T12:03:35;21.50;83.80
7658;DHT22;8462;53.156;8.220;2023-08-07T12:06:05;21.70;84.90
7658;DHT22;8462;53.156;8.220;2023-08-07T12:08:33;21.80;83.40
7658;DHT22;8462;53.156;8.220;2023-08-07T12:11:03;21.70;84.90
7658;DHT22;8462;53.156;8.220;2023-08-07T12:13:31;21.70;84.90
7658;DHT22;8462;53.156;8.220;2023-08-07T12:16:02;21.60;85.50
7658;DHT22;8462;53.156;8.220;2023-08-07T12:18:31;21.40;85.20
7658;DHT22;8462;53.156;8.220;2023-08-07T12:20:59;21.30;85.90
7658;DHT22;8462;53.156;8.220;2023-08-07T12:23:26;21.10;85.40
7658;DHT22;8462;53.156;8.220;2023-08-07T12:25:54;20.90;87.00
7658;DHT22;8462;53.156;8.220;2023-08-07T12:28:23;20.70;89.30
7658;DHT22;8462;53.156;8.220;2023-08-07T12:30:51;20.70;90.00
7658;DHT22;8462;53.156;8.220;2023-08-07T12:33:19;20.70;89.50
7658;DHT22;8462;53.156;8.220;2023-08-07T12:35:46;20.50;89.60
7658;DHT22;8462;53.156;8.220;2023-08-07T12:38:14;20.40;90.20
7658;DHT22;8462;53.156;8.220;2023-08-07T12:40:42;20.40;90.40
7658;DHT22;8462;53.156;8.220;2023-08-07T12:43:09;20.50;90.20
7658;DHT22;8462;53.156;8.220;2023-08-07T12:45:37;20.70;90.40
7658;DHT22;8462;53.156;8.220;2023-08-07T12:48:04;20.90;88.70
7658;DHT22;8462;53.156;8.220;2023-08-07T12:50:32;21.00;87.60
7658;DHT22;8462;53.156;8.220;2023-08-07T12:52:59;21.20;86.50
7658;DHT22;8462;53.156;8.220;2023-08-07T12:55:26;21.30;87.00
7658;DHT22;8462;53.156;8.220;2023-08-07T12:57:54;21.40;83.90
7658;DHT22;8462;53.156;8.220;2023-08-07T13:00:22;21.40;83.40
7658;DHT22;8462;53.156;8.220;2023-08-07T13:02:51;21.40;84.90
7658;DHT22;8462;53.156;8.220;2023-08-07T13:05:19;21.40;78.80
7658;DHT22;8462;53.156;8.220;2023-08-07T13:07:47;21.30;79.00
7658;DHT22;8462;53.156;8.220;2023-08-07T13:10:15;21.30;78.80
7658;DHT22;8462;53.156;8.220;2023-08-07T13:12:43;21.30;76.80
7658;DHT22;8462;53.156;8.220;2023-08-07T13:15:13;21.20;75.00
7658;DHT22;8462;53.156;8.220;2023-08-07T13:17:40;21.30;74.20
7658;DHT22;8462;53.156;8.220;2023-08-07T13:20:10;21.30;73.50
7658;DHT22;8462;53.156;8.220;2023-08-07T13:22:39;21.20;74.40
7658;DHT22;8462;53.156;8.220;2023-08-07T13:25:08;21.20;74.20
7658;DHT22;8462;53.156;8.220;2023-08-07T13:27:35;21.20;76.00
7658;DHT22;8462;53.156;8.220;2023-08-07T13:30:03;21.30;75.60
7658;DHT22;8462;53.156;8.220;2023-08-07T13:32:31;21.30;77.40
7658;DHT22;8462;53.156;8.220;2023-08-07T13:34:58;21.50;76.40
7658;DHT22;8462;53.156;8.220;2023-08-07T13:37:27;21.60;74.40
7658;DHT22;8462;53.156;8.220;2023-08-07T13:39:54;21.60;76.10
7658;DHT22;8462;53.156;8.220;2023-08-07T13:42:23;21.80;77.40
7658;DHT22;8462;53.156;8.220;2023-08-07T13:44:50;21.90;76.20
7658;DHT22;8462;53.156;8.220;2023-08-07T13:47:17;21.80;77.60
7658;DHT22;8462;53.156;8.220;2023-08-07T13:49:46;21.60;77.60
7658;DHT22;8462;53.156;8.220;2023-08-07T13:52:13;21.40;79.70
7658;DHT22;8462;53.156;8.220;2023-08-07T13:54:41;21.30;81.30
7658;DHT22;8462;53.156;8.220;2023-08-07T13:57:08;21.30;82.10
7658;DHT22;8462;53.156;8.220;2023-08-07T13:59:36;21.30;84.20
7658;DHT22;8462;53.156;8.220;2023-08-07T14:02:04;21.20;85.10
7658;DHT22;8462;53.156;8.220;2023-08-07T14:04:31;21.10;86.00
7658;DHT22;8462;53.156;8.220;2023-08-07T14:06:59;21.00;87.50
7658;DHT22;8462;53.156;8.220;2023-08-07T14:09:26;20.80;86.90
7658;DHT22;8462;53.156;8.220;2023-08-07T14:11:54;20.60;88.00
7658;DHT22;8462;53.156;8.220;2023-08-07T14:14:22;20.60;89.30
7658;DHT22;8462;53.156;8.220;2023-08-07T14:16:49;20.60;88.20
7658;DHT22;8462;53.156;8.220;2023-08-07T14:19:16;20.60;88.50
7658;DHT22;8462;53.156;8.220;2023-08-07T14:21:43;20.50;86.50
7658;DHT22;8462;53.156;8.220;2023-08-07T14:24:10;20.40;87.20
7658;DHT22;8462;53.156;8.220;2023-08-07T14:26:37;20.40;86.30
7658;DHT22;8462;53.156;8.220;2023-08-07T14:29:05;20.30;85.10
7658;DHT22;8462;53.156;8.220;2023-08-07T14:31:32;20.30;86.30
7658;DHT22;8462;53.156;8.220;2023-08-07T14:33:59;20.40;83.90
7658;DHT22;8462;53.156;8.220;2023-08-07T14:36:26;20.40;82.50
7658;DHT22;8462;53.156;8.220;2023-08-07T14:38:53;20.40;80.40
7658;DHT22;8462;53.156;8.220;2023-08-07T14:41:20;20.40;79.50
7658;DHT22;8462;53.156;8.220;2023-08-07T14:43:49;20.40;78.10
7658;DHT22;8462;53.156;8.220;2023-08-07T14:46:17;20.40;78.30
7658;DHT22;8462;53.156;8.220;2023-08-07T14:48:46;20.30;78.00
7658;DHT22;8462;53.156;8.220;2023-08-07T14:51:13;20.30;79.90
7658;DHT22;8462;53.156;8.220;2023-08-07T14:53:40;20.40;81.40
7658;DHT22;8462;53.156;8.220;2023-08-07T14:56:07;20.50;82.90
7658;DHT22;8462;53.156;8.220;2023-08-07T14:58:35;20.80;82.70
7658;DHT22;8462;53.156;8.220;2023-08-07T15:01:03;21.00;79.40
7658;DHT22;8462;53.156;8.220;2023-08-07T15:03:31;21.30;76.80
7658;DHT22;8462;53.156;8.220;2023-08-07T15:05:59;21.30;77.30
7658;DHT22;8462;53.156;8.220;2023-08-07T15:08:26;21.40;78.60
7658;DHT22;8462;53.156;8.220;2023-08-07T15:10:53;21.40;78.00
7658;DHT22;8462;53.156;8.220;2023-08-07T15:13:20;21.30;79.70
7658;DHT22;8462;53.156;8.220;2023-08-07T15:15:47;21.20;80.20
7658;DHT22;8462;53.156;8.220;2023-08-07T15:18:14;21.10;81.30
7658;DHT22;8462;53.156;8.220;2023-08-07T15:20:42;20.90;82.90
7658;DHT22;8462;53.156;8.220;2023-08-07T15:23:09;20.80;85.70
7658;DHT22;8462;53.156;8.220;2023-08-07T15:25:37;20.60;87.90
7658;DHT22;8462;53.156;8.220;2023-08-07T15:28:06;20.30;90.30
7658;DHT22;8462;53.156;8.220;2023-08-07T15:30:33;19.90;92.00
7658;DHT22;8462;53.156;8.220;2023-08-07T15:33:00;19.50;93.60
7658;DHT22;8462;53.156;8.220;2023-08-07T15:35:29;19.10;95.00
7658;DHT22;8462;53.156;8.220;2023-08-07T15:37:58;18.80;95.90
7658;DHT22;8462;53.156;8.220;2023-08-07T15:40:25;18.70;96.40
7658;DHT22;8462;53.156;8.220;2023-08-07T15:42:52;18.70;97.00
7658;DHT22;8462;53.156;8.220;2023-08-07T15:45:19;18.90;96.60
7658;DHT22;8462;53.156;8.220;2023-08-07T15:47:46;19.00;96.20
7658;DHT22;8462;53.156;8.220;2023-08-07T15:50:13;19.20;96.60
7658;DHT22;8462;53.156;8.220;2023-08-07T15:52:40;19.40;95.90
7658;DHT22;8462;53.156;8.220;2023-08-07T15:55:09;19.60;94.80
7658;DHT22;8462;53.156;8.220;2023-08-07T15:57:36;19.80;93.30
7658;DHT22;8462;53.156;8.220;2023-08-07T16:00:04;19.90;92.40
7658;DHT22;8462;53.156;8.220;2023-08-07T16:02:39;19.90;91.30
7658;DHT22;8462;53.156;8.220;2023-08-07T16:05:07;19.90;91.40
7658;DHT22;8462;53.156;8.220;2023-08-07T16:07:34;20.00;90.10